Time;durP1;ratioP1;P1;durP2;ratioP2;P2;SDS_P1;SDS_P2;PMS_P1;PMS_P2;Temp;Humidity;BMP_temperature;BMP_pressure;BME280_temperature;BME280_humidity;BME280_pressure;Samples;Min_cycle;Max_cycle;Signal;HPM_P1;HPM_P2
2024/01/22 00:03:44;;;;;;;50.10;21.52;;;;;;;;;;10257015;28;20062;-60
2024/01/22 00:08:42;;;;;;;38.47;20.38;;;;;;;;;;10258164;28;20069;-60
2024/01/22 00:13:40;;;;;;;45.03;24.00;;;;;;;;;;10255883;28;20426;-60
2024/01/22 00:18:38;;;;;;;35.88;21.83;;;;;;;;;;10248836;28;20085;-60
2024/01/22 00:23:38;;;;;;;47.55;27.73;;;;;;;;;;10255251;28;20561;-59
2024/01/22 00:28:37;;;;;;;50.20;17.20;;;;;;;;;;10258069;28;20072;-60
2024/01/22 00:33:35;;;;;;;43.45;18.17;;;;;;;;;;10256131;28;20729;-60
2024/01/22 00:38:33;;;;;;;29.83;17.92;;;;;;;;;;10255292;28;20088;-60
2024/01/22 00:43:33;;;;;;;32.97;16.27;;;;;;;;;;10254366;28;20076;-60
2024/01/22 00:48:31;;;;;;;32.67;18.20;;;;;;;;;;10254347;28;20546;-60
2024/01/22 00:53:30;;;;;;;56.47;18.55;;;;;;;;;;10255077;28;20533;-60
2024/01/22 00:58:28;;;;;;;48.85;21.83;;;;;;;;;;10254720;28;20087;-61
2024/01/22 01:03:28;;;;;;;34.88;19.65;;;;;;;;;;10254447;28;20084;-60
2024/01/22 01:08:26;;;;;;;49.83;21.63;;;;;;;;;;10257011;28;20076;-62
2024/01/22 01:13:24;;;;;;;41.90;19.10;;;;;;;;;;10254014;28;20073;-60
2024/01/22 01:18:22;;;;;;;38.45;15.93;;;;;;;;;;10252448;28;20080;-60
2024/01/22 01:23:22;;;;;;;39.63;18.65;;;;;;;;;;10252801;28;20080;-60
2024/01/22 01:28:20;;;;;;;26.35;10.68;;;;;;;;;;10253229;28;20499;-60
2024/01/22 01:33:19;;;;;;;18.45;9.02;;;;;;;;;;10253052;28;20064;-59
2024/01/22 01:38:17;;;;;;;15.25;9.75;;;;;;;;;;10251466;28;20079;-59
2024/01/22 01:43:18;;;;;;;14.25;9.57;;;;;;;;;;10253454;28;20075;-59
2024/01/22 01:48:16;;;;;;;15.98;10.18;;;;;;;;;;10249472;28;20080;-59
2024/01/22 01:53:15;;;;;;;21.40;7.78;;;;;;;;;;10250104;28;20477;-60
2024/01/22 01:58:14;;;;;;;9.75;8.70;;;;;;;;;;10258154;28;20080;-60
2024/01/22 02:03:14;;;;;;;11.55;10.10;;;;;;;;;;10252451;28;20501;-60
2024/01/22 02:08:12;;;;;;;23.73;10.10;;;;;;;;;;10251861;28;20084;-60
2024/01/22 02:13:10;;;;;;;22.65;11.57;;;;;;;;;;10251347;28;20514;-60
2024/01/22 02:18:08;;;;;;;13.25;7.95;;;;;;;;;;10250690;28;20082;-58
2024/01/22 02:23:08;;;;;;;17.85;9.40;;;;;;;;;;10249821;28;20160;-59
2024/01/22 02:28:06;;;;;;;12.65;7.82;;;;;;;;;;10249951;28;20072;-60
2024/01/22 02:33:05;;;;;;;12.23;8.98;;;;;;;;;;10251446;28;20076;-60
2024/01/22 02:38:03;;;;;;;15.57;13.40;;;;;;;;;;10252200;28;20496;-60
2024/01/22 02:43:03;;;;;;;30.73;13.57;;;;;;;;;;10259388;28;20126;-60
2024/01/22 02:48:01;;;;;;;66.68;31.98;;;;;;;;;;10260559;28;20455;-60
2024/01/22 02:53:00;;;;;;;42.83;16.08;;;;;;;;;;10260279;28;20072;-60
2024/01/22 02:57:58;;;;;;;12.75;10.25;;;;;;;;;;10256359;28;20076;-60
2024/01/22 03:02:57;;;;;;;24.80;17.02;;;;;;;;;;10258373;28;20065;-59
2024/01/22 03:07:56;;;;;;;112.85;13.40;;;;;;;;;;10259529;28;20061;-60
2024/01/22 03:12:54;;;;;;;55.83;10.63;;;;;;;;;;10257045;28;20061;-59
2024/01/22 03:17:52;;;;;;;66.82;10.65;;;;;;;;;;10257490;28;20084;-59
2024/01/22 03:22:52;;;;;;;34.50;9.75;;;;;;;;;;10259642;28;20076;-60
2024/01/22 03:27:50;;;;;;;70.55;14.30;;;;;;;;;;10257894;28;20068;-60
2024/01/22 03:32:49;;;;;;;28.75;9.68;;;;;;;;;;10257593;28;20083;-60
2024/01/22 03:37:47;;;;;;;84.15;11.65;;;;;;;;;;10258055;28;20076;-60
2024/01/22 03:42:48;;;;;;;70.80;11.38;;;;;;;;;;10256844;28;20582;-60
2024/01/22 03:47:46;;;;;;;37.58;10.35;;;;;;;;;;10256560;28;20065;-60
2024/01/22 03:52:45;;;;;;;29.88;11.48;;;;;;;;;;10258098;28;20065;-60
2024/01/22 03:57:43;;;;;;;95.47;12.73;;;;;;;;;;10257424;28;20483;-59
2024/01/22 04:02:44;;;;;;;29.00;8.15;;;;;;;;;;10256162;28;20075;-59
2024/01/22 04:07:43;;;;;;;41.28;9.27;;;;;;;;;;10255028;28;20069;-59
2024/01/22 04:12:41;;;;;;;51.28;12.35;;;;;;;;;;10255945;28;20068;-60
2024/01/22 04:17:39;;;;;;;14.93;6.28;;;;;;;;;;10252721;28;20084;-60
2024/01/22 04:22:41;;;;;;;20.90;6.65;;;;;;;;;;10253478;28;20076;-60
2024/01/22 04:27:39;;;;;;;17.55;7.35;;;;;;;;;;10254049;28;20437;-60
2024/01/22 04:32:37;;;;;;;14.02;8.85;;;;;;;;;;10255763;28;20065;-59
2024/01/22 04:37:36;;;;;;;11.02;7.40;;;;;;;;;;10254888;28;20081;-58
2024/01/22 04:42:35;;;;;;;9.80;7.95;;;;;;;;;;10254129;28;20076;-57
2024/01/22 04:47:34;;;;;;;17.48;7.45;;;;;;;;;;10255318;28;20088;-59
2024/01/22 04:52:32;;;;;;;16.38;7.05;;;;;;;;;;10257593;28;20045;-59
2024/01/22 04:57:30;;;;;;;11.88;7.53;;;;;;;;;;10256785;28;20080;-59
2024/01/22 05:02:30;;;;;;;13.05;8.48;;;;;;;;;;10256033;28;20073;-59
2024/01/22 05:07:28;;;;;;;20.17;7.13;;;;;;;;;;10255743;28;20076;-59
2024/01/22 05:12:26;;;;;;;13.20;8.02;;;;;;;;;;10257550;28;20088;-60
2024/01/22 05:17:26;;;;;;;26.92;17.17;;;;;;;;;;10256841;28;20099;-59
2024/01/22 05:22:26;;;;;;;101.57;60.60;;;;;;;;;;10257401;28;20076;-59
2024/01/22 05:27:24;;;;;;;47.67;27.80;;;;;;;;;;10251423;28;20041;-59
2024/01/22 05:32:23;;;;;;;50.15;25.00;;;;;;;;;;10257525;28;20087;-59
2024/01/22 05:37:21;;;;;;;28.15;14.10;;;;;;;;;;10261644;28;20066;-58
2024/01/22 05:42:21;;;;;;;29.95;17.10;;;;;;;;;;10260670;28;20076;-59
2024/01/22 05:47:19;;;;;;;78.32;43.92;;;;;;;;;;10248265;28;20521;-60
2024/01/22 05:52:17;;;;;;;93.32;52.00;;;;;;;;;;10249941;28;20111;-59
2024/01/22 05:57:15;;;;;;;142.45;74.13;;;;;;;;;;10246559;28;20092;-59
2024/01/22 06:02:15;;;;;;;138.02;59.08;;;;;;;;;;10263644;28;20154;-59
2024/01/22 06:07:13;;;;;;;74.40;34.17;;;;;;;;;;10257029;28;20060;-59
2024/01/22 06:12:12;;;;;;;246.57;108.25;;;;;;;;;;10264955;28;20065;-60
2024/01/22 06:17:11;;;;;;;153.93;72.55;;;;;;;;;;10261819;28;20142;-59
2024/01/22 06:22:12;;;;;;;259.38;120.65;;;;;;;;;;10255830;28;20077;-59
2024/01/22 06:27:11;;;;;;;342.98;160.07;;;;;;;;;;10252736;28;20065;-59
2024/01/22 06:32:09;;;;;;;85.60;22.92;;;;;;;;;;10250729;28;20076;-59
2024/01/22 06:37:07;;;;;;;101.30;48.17;;;;;;;;;;10253627;28;20083;-61
2024/01/22 06:42:07;;;;;;;77.00;30.25;;;;;;;;;;10249573;28;20096;-59
2024/01/22 06:47:06;;;;;;;67.82;20.05;;;;;;;;;;10252110;28;20517;-60
2024/01/22 06:52:05;;;;;;;73.07;23.92;;;;;;;;;;10251493;28;20084;-60
2024/01/22 06:57:03;;;;;;;78.03;25.25;;;;;;;;;;10250445;28;20145;-60
2024/01/22 07:02:03;;;;;;;109.85;35.70;;;;;;;;;;10247999;28;20077;-59
2024/01/22 07:07:01;;;;;;;82.13;39.70;;;;;;;;;;10251697;28;20069;-59
2024/01/22 07:11:59;;;;;;;99.85;24.58;;;;;;;;;;10250486;28;20079;-60
2024/01/22 07:16:57;;;;;;;75.25;16.15;;;;;;;;;;10251466;28;20080;-59
2024/01/22 07:21:57;;;;;;;68.90;16.13;;;;;;;;;;10250872;28;20084;-59
2024/01/22 07:26:55;;;;;;;48.83;17.88;;;;;;;;;;10255512;28;20073;-59
2024/01/22 07:31:53;;;;;;;44.90;16.67;;;;;;;;;;10259756;28;20463;-59
2024/01/22 07:36:52;;;;;;;48.67;17.35;;;;;;;;;;10258446;28;20067;-60
2024/01/22 07:41:51;;;;;;;45.65;21.63;;;;;;;;;;10261074;28;20065;-61
2024/01/22 07:46:50;;;;;;;45.25;18.35;;;;;;;;;;10258740;28;20061;-59
2024/01/22 07:51:48;;;;;;;41.80;16.67;;;;;;;;;;10262198;28;20065;-60
2024/01/22 07:56:47;;;;;;;59.15;18.63;;;;;;;;;;10262494;28;20072;-60
2024/01/22 08:01:47;;;;;;;36.55;17.98;;;;;;;;;;10258485;28;20068;-60
2024/01/22 08:06:45;;;;;;;103.18;25.55;;;;;;;;;;10263229;28;20107;-60
2024/01/22 08:11:43;;;;;;;65.07;26.63;;;;;;;;;;10268746;28;20061;-60
2024/01/22 08:16:43;;;;;;;28.50;15.02;;;;;;;;;;10262363;28;20076;-60
2024/01/22 08:21:42;;;;;;;61.75;25.02;;;;;;;;;;10256088;28;20075;-60
2024/01/22 08:26:40;;;;;;;78.35;24.50;;;;;;;;;;10258688;28;20448;-60
2024/01/22 08:31:39;;;;;;;121.53;19.42;;;;;;;;;;10243813;28;20060;-60
2024/01/22 08:36:37;;;;;;;38.00;17.58;;;;;;;;;;10248483;28;20072;-60
2024/01/22 08:41:37;;;;;;;56.45;34.00;;;;;;;;;;10256179;28;20080;-60
2024/01/22 08:46:35;;;;;;;39.40;20.85;;;;;;;;;;10258444;28;20560;-60
2024/01/22 08:51:33;;;;;;;36.83;30.58;;;;;;;;;;10255506;28;20075;-60
2024/01/22 08:56:31;;;;;;;31.95;20.08;;;;;;;;;;10253318;28;20068;-60
2024/01/22 09:01:33;;;;;;;61.28;29.13;;;;;;;;;;10253488;28;20069;-59
2024/01/22 09:06:32;;;;;;;49.28;17.60;;;;;;;;;;10254212;28;20064;-59
2024/01/22 09:11:30;;;;;;;57.30;25.27;;;;;;;;;;10253586;28;20068;-60
2024/01/22 09:16:28;;;;;;;63.25;33.42;;;;;;;;;;10252799;28;20088;-60
2024/01/22 09:21:28;;;;;;;36.60;19.67;;;;;;;;;;10253052;28;20077;-62
2024/01/22 09:26:27;;;;;;;144.68;20.17;;;;;;;;;;10250789;28;20135;-60
2024/01/22 09:31:26;;;;;;;71.05;22.55;;;;;;;;;;10255439;28;20103;-60
2024/01/22 09:36:24;;;;;;;53.22;14.50;;;;;;;;;;10254856;28;20068;-60
2024/01/22 09:41:25;;;;;;;75.53;28.23;;;;;;;;;;10254566;28;20083;-59
2024/01/22 09:46:24;;;;;;;44.10;18.65;;;;;;;;;;10250211;28;20089;-59
2024/01/22 09:51:22;;;;;;;39.22;14.38;;;;;;;;;;10255137;28;20095;-60
2024/01/22 09:56:23;;;;;;;53.15;16.65;;;;;;;;;;10255041;28;20076;-61
2024/01/22 10:01:23;;;;;;;28.60;13.90;;;;;;;;;;10253766;28;20518;-60
2024/01/22 10:06:21;;;;;;;68.28;32.90;;;;;;;;;;10254517;28;20471;-60
2024/01/22 10:11:20;;;;;;;53.00;21.95;;;;;;;;;;10253207;28;20068;-60
2024/01/22 10:16:18;;;;;;;40.83;21.40;;;;;;;;;;10253039;28;20081;-61
2024/01/22 10:21:20;;;;;;;52.30;23.42;;;;;;;;;;10252633;28;20073;-59
2024/01/22 10:26:22;;;;;;;29.67;17.65;;;;;;;;;;10256471;28;20069;-60
2024/01/22 10:31:20;;;;;;;44.53;24.77;;;;;;;;;;10254807;28;20756;-60
2024/01/22 10:36:21;;;;;;;78.72;23.90;;;;;;;;;;10252812;28;20073;-59
2024/01/22 10:41:22;;;;;;;80.68;31.23;;;;;;;;;;10252809;28;20119;-59
2024/01/22 10:46:20;;;;;;;158.27;37.80;;;;;;;;;;10254889;28;20096;-60
2024/01/22 10:51:20;;;;;;;36.10;18.67;;;;;;;;;;10251068;28;20068;-60
2024/01/22 10:56:18;;;;;;;46.42;21.25;;;;;;;;;;10253522;28;20495;-59
2024/01/22 11:01:21;;;;;;;127.82;34.08;;;;;;;;;;10258874;28;20076;-61
2024/01/22 11:06:21;;;;;;;113.32;41.00;;;;;;;;;;10258356;28;20087;-60
2024/01/22 11:11:20;;;;;;;109.55;45.65;;;;;;;;;;10257551;28;20150;-59
2024/01/22 11:16:20;;;;;;;70.35;35.30;;;;;;;;;;10261764;28;20080;-61
2024/01/22 11:21:19;;;;;;;56.90;22.88;;;;;;;;;;10258777;28;20077;-60
2024/01/22 11:26:17;;;;;;;46.22;13.93;;;;;;;;;;10257249;28;20482;-58
2024/01/22 11:31:27;;;;;;;62.63;16.10;;;;;;;;;;10261796;28;20069;-60
2024/01/22 11:36:31;;;;;;;67.82;29.02;;;;;;;;;;10255274;28;20565;-58
2024/01/22 11:41:32;;;;;;;35.17;20.40;;;;;;;;;;10258319;28;20076;-59
2024/01/22 11:46:32;;;;;;;49.20;20.50;;;;;;;;;;10259883;28;20576;-59
2024/01/22 11:51:30;;;;;;;64.47;21.33;;;;;;;;;;10255061;28;20097;-59
2024/01/22 11:56:29;;;;;;;43.78;21.50;;;;;;;;;;10261244;28;20068;-60
2024/01/22 12:01:27;;;;;;;26.55;16.65;;;;;;;;;;10260773;28;20069;-60
2024/01/22 12:06:27;;;;;;;53.13;16.50;;;;;;;;;;10255689;28;20065;-61
2024/01/22 12:11:36;;;;;;;41.22;18.65;;;;;;;;;;10255450;28;20080;-61
2024/01/22 12:16:37;;;;;;;39.55;18.83;;;;;;;;;;10259081;28;20104;-62
2024/01/22 12:21:38;;;;;;;72.70;24.80;;;;;;;;;;10255004;28;20083;-59
2024/01/22 12:26:40;;;;;;;35.53;16.73;;;;;;;;;;10260075;28;20076;-61
2024/01/22 12:31:38;;;;;;;41.22;23.02;;;;;;;;;;10256364;28;20075;-60
2024/01/22 12:36:39;;;;;;;70.70;22.55;;;;;;;;;;10256784;28;20076;-61
2024/01/22 12:41:37;;;;;;;115.57;29.50;;;;;;;;;;10255452;28;20509;-61
2024/01/22 12:46:35;;;;;;;93.75;46.08;;;;;;;;;;10256338;28;20069;-60
2024/01/22 12:51:34;;;;;;;27.73;16.13;;;;;;;;;;10257219;28;20084;-61
2024/01/22 12:56:34;;;;;;;69.63;19.08;;;;;;;;;;10256962;28;20091;-60
2024/01/22 13:01:32;;;;;;;30.25;19.23;;;;;;;;;;10254480;28;20117;-59
2024/01/22 13:06:30;;;;;;;82.10;44.80;;;;;;;;;;10255506;28;20533;-61
2024/01/22 13:11:29;;;;;;;96.68;45.40;;;;;;;;;;10255349;28;20079;-61
2024/01/22 13:16:31;;;;;;;38.17;22.55;;;;;;;;;;10252149;28;20091;-60
2024/01/22 13:21:29;;;;;;;65.43;39.22;;;;;;;;;;10256771;28;20475;-59
2024/01/22 13:26:28;;;;;;;90.40;15.32;;;;;;;;;;10255769;28;20080;-61
2024/01/22 13:31:26;;;;;;;89.35;51.17;;;;;;;;;;10254758;28;20544;-61
2024/01/22 13:36:26;;;;;;;105.05;31.35;;;;;;;;;;10255130;28;20057;-60
2024/01/22 13:41:29;;;;;;;42.47;19.33;;;;;;;;;;10255573;28;20186;-60
2024/01/22 13:46:27;;;;;;;60.95;39.03;;;;;;;;;;10252940;28;20069;-60
2024/01/22 13:51:27;;;;;;;83.53;42.70;;;;;;;;;;10252346;28;20095;-60
2024/01/22 13:56:25;;;;;;;55.38;38.13;;;;;;;;;;10255395;28;20088;-62
2024/01/22 14:01:23;;;;;;;56.15;24.25;;;;;;;;;;10254771;28;20099;-59
2024/01/22 14:06:22;;;;;;;44.50;17.00;;;;;;;;;;10254203;28;20076;-60
2024/01/22 14:11:21;;;;;;;42.72;27.35;;;;;;;;;;10257573;28;20080;-61
2024/01/22 14:16:20;;;;;;;34.53;19.00;;;;;;;;;;10255637;28;20069;-61
2024/01/22 14:21:19;;;;;;;30.80;21.10;;;;;;;;;;10256895;28;20069;-61
2024/01/22 14:26:18;;;;;;;60.50;29.55;;;;;;;;;;10251780;28;20073;-59
2024/01/22 14:31:18;;;;;;;43.63;22.73;;;;;;;;;;10252897;28;20506;-61
2024/01/22 14:36:16;;;;;;;53.63;33.00;;;;;;;;;;10259602;28;20481;-59
2024/01/22 14:41:14;;;;;;;80.15;27.20;;;;;;;;;;10259046;28;20080;-60
2024/01/22 14:46:13;;;;;;;104.45;21.30;;;;;;;;;;10263517;28;20073;-60
2024/01/22 14:51:15;;;;;;;63.95;44.30;;;;;;;;;;10263197;28;20089;-59
2024/01/22 14:56:14;;;;;;;140.70;50.05;;;;;;;;;;10259339;28;20075;-59
2024/01/22 15:01:13;;;;;;;54.05;23.02;;;;;;;;;;10259264;28;20517;-59
2024/01/22 15:06:11;;;;;;;43.75;29.77;;;;;;;;;;10259456;28;20076;-60
2024/01/22 15:11:10;;;;;;;56.22;24.90;;;;;;;;;;10258941;28;20069;-60
2024/01/22 15:16:09;;;;;;;98.78;39.70;;;;;;;;;;10263838;28;20084;-60
2024/01/22 15:21:09;;;;;;;55.50;29.42;;;;;;;;;;10264803;28;20072;-60
2024/01/22 15:26:08;;;;;;;44.92;26.48;;;;;;;;;;10261899;28;20076;-59
2024/01/22 15:31:09;;;;;;;98.18;29.52;;;;;;;;;;10259851;28;20530;-60
2024/01/22 15:36:09;;;;;;;139.80;22.40;;;;;;;;;;10260834;28;20081;-59
2024/01/22 15:41:10;;;;;;;74.35;25.77;;;;;;;;;;10260920;28;20073;-60
2024/01/22 15:46:10;;;;;;;57.20;31.40;;;;;;;;;;10263289;28;20083;-60
2024/01/22 15:51:09;;;;;;;78.20;37.53;;;;;;;;;;10263694;28;20076;-59
2024/01/22 15:56:08;;;;;;;162.20;34.75;;;;;;;;;;10263419;28;20060;-60
2024/01/22 16:01:06;;;;;;;57.10;25.73;;;;;;;;;;10258249;28;20069;-60
2024/01/22 16:06:06;;;;;;;126.07;26.67;;;;;;;;;;10258089;28;20079;-62
2024/01/22 16:11:05;;;;;;;82.82;22.70;;;;;;;;;;10252820;28;20100;-62
2024/01/22 16:16:04;;;;;;;115.10;33.28;;;;;;;;;;10257703;28;20091;-61
2024/01/22 16:21:03;;;;;;;136.65;33.58;;;;;;;;;;10260017;28;20084;-64
2024/01/22 16:26:03;;;;;;;103.75;32.30;;;;;;;;;;10255196;28;20073;-61
2024/01/22 16:31:01;;;;;;;80.15;27.27;;;;;;;;;;10259696;28;20107;-61
2024/01/22 16:35:59;;;;;;;136.05;36.58;;;;;;;;;;10256994;28;20061;-62
2024/01/22 16:40:57;;;;;;;166.80;28.63;;;;;;;;;;10250967;28;20060;-62
2024/01/22 16:45:57;;;;;;;111.53;26.58;;;;;;;;;;10254247;28;20079;-61
2024/01/22 16:50:55;;;;;;;138.82;32.83;;;;;;;;;;10260429;28;20069;-61
2024/01/22 16:55:54;;;;;;;101.10;23.75;;;;;;;;;;10254621;28;20495;-61
2024/01/22 17:00:52;;;;;;;186.98;29.00;;;;;;;;;;10256535;28;20498;-62
2024/01/22 17:05:52;;;;;;;74.57;21.80;;;;;;;;;;10254947;28;20076;-62
2024/01/22 17:10:50;;;;;;;76.95;31.63;;;;;;;;;;10254285;28;20069;-60
2024/01/22 17:15:49;;;;;;;168.38;33.97;;;;;;;;;;10253850;28;20491;-60
2024/01/22 17:20:48;;;;;;;40.53;23.42;;;;;;;;;;10255972;28;20076;-61
2024/01/22 17:25:48;;;;;;;156.63;42.83;;;;;;;;;;10253428;28;20079;-61
2024/01/22 17:30:46;;;;;;;58.50;26.98;;;;;;;;;;10258168;28;20072;-60
2024/01/22 17:35:45;;;;;;;92.07;27.55;;;;;;;;;;10253097;28;20083;-60
2024/01/22 17:40:44;;;;;;;72.65;24.55;;;;;;;;;;10249472;28;20509;-61
2024/01/22 17:45:44;;;;;;;51.50;23.92;;;;;;;;;;10252988;28;20517;-62
2024/01/22 17:50:42;;;;;;;86.72;34.53;;;;;;;;;;10249549;28;20108;-61
2024/01/22 17:55:40;;;;;;;101.88;43.65;;;;;;;;;;10252907;28;20084;-61
2024/01/22 18:00:40;;;;;;;136.23;42.47;;;;;;;;;;10257673;28;20071;-61
2024/01/22 18:05:40;;;;;;;132.35;59.90;;;;;;;;;;10253962;28;20065;-61
2024/01/22 18:10:38;;;;;;;142.68;60.35;;;;;;;;;;10253681;28;20072;-61
2024/01/22 18:15:36;;;;;;;105.13;46.28;;;;;;;;;;10254129;28;20088;-62
2024/01/22 18:20:36;;;;;;;80.47;37.15;;;;;;;;;;10253292;28;20053;-62
2024/01/22 18:25:35;;;;;;;104.72;58.75;;;;;;;;;;10251754;28;20080;-61
2024/01/22 18:30:36;;;;;;;70.43;38.38;;;;;;;;;;10253475;28;20069;-62
2024/01/22 18:35:35;;;;;;;60.67;28.17;;;;;;;;;;10257428;28;20099;-62
2024/01/22 18:40:33;;;;;;;41.75;22.88;;;;;;;;;;10259235;28;20084;-60
2024/01/22 18:45:34;;;;;;;145.60;77.45;;;;;;;;;;10253565;28;20131;-61
2024/01/22 18:50:35;;;;;;;72.15;31.67;;;;;;;;;;10249856;28;20076;-60
2024/01/22 18:55:34;;;;;;;62.35;31.40;;;;;;;;;;10255069;28;20498;-61
2024/01/22 19:00:32;;;;;;;68.65;34.83;;;;;;;;;;10252320;28;20080;-61
2024/01/22 19:05:32;;;;;;;99.30;61.63;;;;;;;;;;10252922;28;20493;-61
2024/01/22 19:10:31;;;;;;;117.50;71.38;;;;;;;;;;10244334;28;20084;-61
2024/01/22 19:15:29;;;;;;;71.80;39.80;;;;;;;;;;10252184;28;20119;-60
2024/01/22 19:20:27;;;;;;;56.80;35.47;;;;;;;;;;10252677;28;20509;-61
2024/01/22 19:25:27;;;;;;;107.57;53.60;;;;;;;;;;10258951;28;20073;-61
2024/01/22 19:30:25;;;;;;;116.18;60.97;;;;;;;;;;10256990;28;20068;-60
2024/01/22 19:35:24;;;;;;;76.57;39.08;;;;;;;;;;10257201;28;20083;-60
2024/01/22 19:40:22;;;;;;;66.45;32.28;;;;;;;;;;10256372;28;20072;-60
2024/01/22 19:45:21;;;;;;;103.43;59.97;;;;;;;;;;10260213;28;20069;-62
2024/01/22 19:50:20;;;;;;;138.05;54.75;;;;;;;;;;10258446;28;20075;-61
2024/01/22 19:55:18;;;;;;;114.70;60.30;;;;;;;;;;10258491;28;20480;-61
2024/01/22 20:00:17;;;;;;;104.10;56.20;;;;;;;;;;10259520;28;20072;-60
2024/01/22 20:05:16;;;;;;;89.30;41.38;;;;;;;;;;10256716;28;20076;-60
2024/01/22 20:10:15;;;;;;;80.43;44.90;;;;;;;;;;10256026;28;20080;-60
2024/01/22 20:15:13;;;;;;;89.50;41.30;;;;;;;;;;10255629;28;20080;-61
2024/01/22 20:20:12;;;;;;;97.10;37.40;;;;;;;;;;10259237;28;20069;-61
2024/01/22 20:25:13;;;;;;;96.47;30.08;;;;;;;;;;10257299;28;20088;-62
2024/01/22 20:30:11;;;;;;;82.00;29.40;;;;;;;;;;10256586;28;20077;-62
2024/01/22 20:35:10;;;;;;;57.95;30.30;;;;;;;;;;10255652;28;20457;-62
2024/01/22 20:40:08;;;;;;;150.20;50.10;;;;;;;;;;10255075;28;20502;-61
2024/01/22 20:45:09;;;;;;;87.43;44.38;;;;;;;;;;10257303;28;20091;-61
2024/01/22 20:50:08;;;;;;;95.50;37.55;;;;;;;;;;10257247;28;20080;-61
2024/01/22 20:55:07;;;;;;;139.80;35.95;;;;;;;;;;10254499;28;20565;-61
2024/01/22 21:00:08;;;;;;;105.22;43.85;;;;;;;;;;10255228;28;20068;-61
2024/01/22 21:05:09;;;;;;;107.40;47.85;;;;;;;;;;10253263;28;20503;-61
2024/01/22 21:10:08;;;;;;;124.45;41.90;;;;;;;;;;10256206;28;20080;-61
2024/01/22 21:15:07;;;;;;;132.95;36.60;;;;;;;;;;10254703;28;20077;-61
2024/01/22 21:20:07;;;;;;;112.90;41.15;;;;;;;;;;10256483;28;20085;-60
2024/01/22 21:25:07;;;;;;;67.68;36.85;;;;;;;;;;10252229;28;20076;-61
2024/01/22 21:30:05;;;;;;;68.50;33.47;;;;;;;;;;10252303;28;20521;-60
2024/01/22 21:35:04;;;;;;;90.53;37.80;;;;;;;;;;10256378;28;20104;-61
2024/01/22 21:40:03;;;;;;;173.30;37.45;;;;;;;;;;10251396;28;20091;-62
2024/01/22 21:45:03;;;;;;;111.65;31.75;;;;;;;;;;10251546;28;20069;-61
2024/01/22 21:50:01;;;;;;;100.28;30.40;;;;;;;;;;10251039;28;20069;-61
2024/01/22 21:55:02;;;;;;;82.80;33.83;;;;;;;;;;10250398;28;20064;-61
2024/01/22 22:00:00;;;;;;;68.68;31.55;;;;;;;;;;10251200;28;20067;-60
2024/01/22 22:05:10;;;;;;;67.65;32.88;;;;;;;;;;10256722;28;20083;-61
2024/01/22 22:10:09;;;;;;;55.30;26.00;;;;;;;;;;10256257;28;20076;-61
2024/01/22 22:15:08;;;;;;;46.13;24.30;;;;;;;;;;10254897;28;20072;-60
2024/01/22 22:20:07;;;;;;;70.43;26.80;;;;;;;;;;10258197;28;20068;-60
2024/01/22 22:25:08;;;;;;;61.45;27.35;;;;;;;;;;10251687;28;20065;-61
2024/01/22 22:30:08;;;;;;;65.97;33.60;;;;;;;;;;10246860;28;20077;-60
2024/01/22 22:35:06;;;;;;;53.65;27.33;;;;;;;;;;10245816;28;20518;-60
2024/01/22 22:40:05;;;;;;;89.70;34.85;;;;;;;;;;10245280;28;20354;-61
2024/01/22 22:45:08;;;;;;;128.07;28.20;;;;;;;;;;10245683;28;20069;-61
2024/01/22 22:50:07;;;;;;;76.47;29.83;;;;;;;;;;10246745;28;20084;-61
2024/01/22 22:55:06;;;;;;;79.40;26.88;;;;;;;;;;10253014;28;20452;-61
2024/01/22 23:00:07;;;;;;;114.82;37.15;;;;;;;;;;10254166;28;20084;-60
2024/01/22 23:05:07;;;;;;;82.47;27.10;;;;;;;;;;10256190;28;20211;-60
2024/01/22 23:10:06;;;;;;;75.07;33.70;;;;;;;;;;10258207;28;20083;-60
2024/01/22 23:15:06;;;;;;;82.72;44.35;;;;;;;;;;10259505;28;20080;-60
2024/01/22 23:20:05;;;;;;;117.60;31.52;;;;;;;;;;10258437;28;20069;-60
2024/01/22 23:25:04;;;;;;;52.22;29.48;;;;;;;;;;10260554;28;20506;-62
2024/01/22 23:30:03;;;;;;;66.35;28.67;;;;;;;;;;10258649;28;20073;-63
2024/01/22 23:35:03;;;;;;;64.00;35.50;;;;;;;;;;10257778;28;20400;-61
2024/01/22 23:40:03;;;;;;;44.03;25.88;;;;;;;;;;10257385;28;20077;-61
2024/01/22 23:45:02;;;;;;;82.55;38.65;;;;;;;;;;10257219;28;20072;-61
2024/01/22 23:50:00;;;;;;;73.32;32.22;;;;;;;;;;10255267;28;20088;-61
2024/01/22 23:55:00;;;;;;;64.00;24.55;;;;;;;;;;10260806;28;20793;-61
2024/01/22 23:59:58;;;;;;;60.45;23.63;;;;;;;;;;10257073;28;20095;-61
